createdAt,value
2023-03-11T00:00:25.579Z,100052.59
2023-03-11T00:02:55.056Z,100051.44
2023-03-11T00:05:26.824Z,100045.94
2023-03-11T00:07:56.051Z,100049.13
2023-03-11T00:10:33.038Z,100042.41
2023-03-11T00:13:03.308Z,100038.66
2023-03-11T00:15:30.940Z,100040.06
2023-03-11T00:17:58.872Z,100035.16
2023-03-11T00:20:32.090Z,100036.31
2023-03-11T00:22:59.855Z,100030.59
2023-03-11T00:25:29.536Z,100019.47
2023-03-11T00:27:58.137Z,100027.75
2023-03-11T00:30:26.002Z,100017.03
2023-03-11T00:32:55.291Z,100019.09
2023-03-11T00:35:25.849Z,100016.56
2023-03-11T00:37:55.619Z,100007.25
2023-03-11T00:40:25.028Z,99997.28
2023-03-11T00:42:54.257Z,99999.81
2023-03-11T00:45:22.110Z,99996.25
2023-03-11T00:47:51.015Z,99997.44
2023-03-11T00:50:20.972Z,99997.09
2023-03-11T00:52:48.850Z,99993.22
2023-03-11T00:55:25.207Z,99993.88
2023-03-11T00:57:54.966Z,99989.66
2023-03-11T01:00:24.152Z,99985.13
2023-03-11T01:02:52.552Z,99974.97
2023-03-11T01:05:23.681Z,99972.75
2023-03-11T01:07:52.180Z,99962.31
2023-03-11T01:10:20.713Z,99954.63
2023-03-11T01:12:48.516Z,99960.22
2023-03-11T01:15:35.972Z,99947.41
2023-03-11T01:18:04.392Z,99954.22
2023-03-11T01:20:35.012Z,99942.56
2023-03-11T01:23:02.694Z,99943.75
2023-03-11T01:25:30.381Z,99933.28
2023-03-11T01:27:59.611Z,99931.94
2023-03-11T01:30:28.326Z,99935.81
2023-03-11T01:32:59.837Z,99933.69
2023-03-11T01:35:28.537Z,99937.56
2023-03-11T01:37:56.562Z,99933.19
2023-03-11T01:40:29.998Z,99930.66
2023-03-11T01:43:00.795Z,99924.75
2023-03-11T01:45:51.322Z,99920.88
2023-03-11T01:48:24.238Z,99913.28
2023-03-11T01:50:52.134Z,99912.59
2023-03-11T01:53:19.719Z,99906.69
2023-03-11T01:55:48.584Z,99913.94
2023-03-11T01:58:22.782Z,99900.59
2023-03-11T02:00:50.849Z,99909.53
2023-03-11T02:03:29.604Z,99894.69
2023-03-11T02:05:57.851Z,99890.13
2023-03-11T02:08:25.553Z,99886.91
2023-03-11T02:10:55.997Z,99887.94
2023-03-11T02:13:24.261Z,99874.41
2023-03-11T02:15:52.180Z,99884.38
2023-03-11T02:18:20.975Z,99872.03
2023-03-11T02:20:57.713Z,99865.31
2023-03-11T02:23:27.806Z,99862.81
2023-03-11T02:26:07.303Z,99866.50
2023-03-11T02:28:36.350Z,99860.75
2023-03-11T02:31:04.415Z,99863.13
2023-03-11T02:33:32.963Z,99855.69
2023-03-11T02:36:08.200Z,99853.97
2023-03-11T02:38:37.866Z,99854.66
2023-03-11T02:41:05.882Z,99858.19
2023-03-11T02:43:42.049Z,99853.47
2023-03-11T02:46:10.811Z,99847.72
2023-03-11T02:48:39.486Z,99849.56
2023-03-11T02:51:07.307Z,99843.03
2023-03-11T02:53:48.101Z,99847.06
2023-03-11T02:56:16.582Z,99847.06
2023-03-11T02:58:44.115Z,99839.28
2023-03-11T03:01:11.980Z,99844.03
2023-03-11T03:03:42.297Z,99844.88
2023-03-11T03:06:13.027Z,99846.53
2023-03-11T03:08:42.628Z,99840.59
2023-03-11T03:11:10.150Z,99835.06
2023-03-11T03:13:37.799Z,99823.91
2023-03-11T03:16:07.180Z,99825.66
2023-03-11T03:18:34.821Z,99822.38
2023-03-11T03:21:07.320Z,99826.31
2023-03-11T03:23:35.327Z,99818.66
2023-03-11T03:26:04.013Z,99810.94
2023-03-11T03:28:34.315Z,99819.53
2023-03-11T03:31:09.363Z,99815.63
2023-03-11T03:33:39.961Z,99821.50
2023-03-11T03:36:10.063Z,99805.31
2023-03-11T03:38:44.004Z,99804.78
2023-03-11T03:41:14.714Z,99801.25
2023-03-11T03:43:42.913Z,99800.56
2023-03-11T03:46:11.735Z,99792.50
2023-03-11T03:48:43.224Z,99780.81
2023-03-11T03:51:12.604Z,99787.41
2023-03-11T03:53:46.736Z,99796.50
2023-03-11T03:56:16.791Z,99818.97
2023-03-11T03:58:46.206Z,99795.47
2023-03-11T04:01:13.919Z,99790.44
2023-03-11T04:03:42.658Z,99788.38
2023-03-11T04:06:21.710Z,99789.56
2023-03-11T04:08:55.984Z,99792.91
2023-03-11T04:11:29.214Z,99799.34
2023-03-11T04:13:58.670Z,99792.56
2023-03-11T04:16:31.333Z,99773.00
2023-03-11T04:19:05.884Z,99766.59
2023-03-11T04:21:34.281Z,99767.78
2023-03-11T04:24:02.565Z,99764.06
2023-03-11T04:26:34.488Z,99753.78
2023-03-11T04:29:02.724Z,99762.06
2023-03-11T04:31:34.277Z,99775.03
2023-03-11T04:34:08.611Z,99757.63
2023-03-11T04:36:38.498Z,99751.50
2023-03-11T04:39:07.406Z,99748.31
2023-03-11T04:41:43.889Z,99759.91
2023-03-11T04:44:15.644Z,99760.41
2023-03-11T04:46:45.945Z,99764.31
2023-03-11T04:49:14.042Z,99765.47
2023-03-11T04:51:41.989Z,99758.50
2023-03-11T04:54:10.575Z,99772.16
2023-03-11T04:56:39.049Z,99756.09
2023-03-11T04:59:08.982Z,99767.38
2023-03-11T05:01:39.358Z,99761.06
2023-03-11T05:04:09.081Z,99755.16
2023-03-11T05:06:37.161Z,99747.22
2023-03-11T05:09:05.863Z,99747.09
2023-03-11T05:11:36.613Z,99753.31
2023-03-11T05:14:04.740Z,99742.91
2023-03-11T05:16:32.644Z,99736.69
2023-03-11T05:19:23.146Z,99734.03
2023-03-11T05:21:52.598Z,99743.69
2023-03-11T05:24:20.568Z,99733.09
2023-03-11T05:26:48.688Z,99735.25
2023-03-11T05:29:17.361Z,99746.56
2023-03-11T05:31:45.788Z,99742.00
2023-03-11T05:34:13.930Z,99739.09
2023-03-11T05:36:42.483Z,99737.72
2023-03-11T05:39:10.328Z,99745.38
2023-03-11T05:41:39.490Z,99760.88
2023-03-11T05:44:07.156Z,99760.72
2023-03-11T05:46:35.824Z,99748.16
2023-03-11T05:49:05.912Z,99753.09
2023-03-11T05:51:37.795Z,99750.19
2023-03-11T05:54:11.588Z,99737.72
2023-03-11T05:56:45.062Z,99740.38
2023-03-11T05:59:16.350Z,99729.09
2023-03-11T06:01:46.224Z,99727.22
2023-03-11T06:04:15.833Z,99726.34
2023-03-11T06:06:48.829Z,99716.47
2023-03-11T06:09:19.313Z,99722.56
2023-03-11T06:11:46.977Z,99717.69
2023-03-11T06:14:16.944Z,99715.63
2023-03-11T06:16:48.813Z,99706.59
2023-03-11T06:19:20.685Z,99716.78
2023-03-11T06:21:51.183Z,99709.03
2023-03-11T06:24:19.210Z,99715.47
2023-03-11T06:26:53.399Z,99711.84
2023-03-11T06:29:24.620Z,99703.88
2023-03-11T06:31:52.760Z,99701.34
2023-03-11T06:34:20.519Z,99696.41
2023-03-11T06:36:48.278Z,99697.31
2023-03-11T06:39:16.142Z,99692.69
2023-03-11T06:41:47.166Z,99696.75
2023-03-11T06:44:15.191Z,99688.84
2023-03-11T06:46:43.328Z,99696.38
2023-03-11T06:49:11.205Z,99687.41
2023-03-11T06:51:41.591Z,99697.13
2023-03-11T06:54:10.370Z,99687.19
2023-03-11T06:56:40.415Z,99687.66
2023-03-11T06:59:09.763Z,99675.25
2023-03-11T07:01:37.374Z,99679.59
2023-03-11T07:04:07.349Z,99667.91
2023-03-11T07:06:37.578Z,99675.19
2023-03-11T07:09:10.994Z,99670.97
2023-03-11T07:11:43.289Z,99672.63
2023-03-11T07:14:15.815Z,99667.38
2023-03-11T07:16:47.981Z,99668.06
2023-03-11T07:19:26.752Z,99671.41
2023-03-11T07:21:54.444Z,99670.94
2023-03-11T07:24:22.689Z,99668.84
2023-03-11T07:26:50.968Z,99663.00
2023-03-11T07:29:20.218Z,99667.72
2023-03-11T07:31:49.262Z,99656.03
2023-03-11T07:34:17.907Z,99659.00
2023-03-11T07:36:48.662Z,99653.56
2023-03-11T07:39:18.030Z,99654.22
2023-03-11T07:41:46.580Z,99637.22
2023-03-11T07:44:14.628Z,99643.53
2023-03-11T07:46:42.466Z,99637.00
2023-03-11T07:49:10.248Z,99625.47
2023-03-11T07:51:39.397Z,99622.56
2023-03-11T07:54:07.068Z,99611.44
2023-03-11T07:56:36.013Z,99609.53
2023-03-11T07:59:03.941Z,99599.44
2023-03-11T08:01:36.669Z,99593.97
2023-03-11T08:04:06.209Z,99594.84
2023-03-11T08:06:34.486Z,99589.22
2023-03-11T08:09:04.329Z,99592.78
2023-03-11T08:11:33.156Z,99595.09
2023-03-11T08:14:01.107Z,99594.88
2023-03-11T08:16:33.183Z,99590.59
2023-03-11T08:19:00.978Z,99597.75
2023-03-11T08:21:30.096Z,99595.44
2023-03-11T08:23:59.583Z,99599.06
2023-03-11T08:26:27.336Z,99594.91
2023-03-11T08:28:55.384Z,99589.78
2023-03-11T08:31:25.474Z,99572.25
2023-03-11T08:33:59.600Z,99561.06
2023-03-11T08:36:28.098Z,99554.00
2023-03-11T08:38:55.700Z,99559.72
2023-03-11T08:41:23.352Z,99554.63
2023-03-11T08:43:52.400Z,99549.53
2023-03-11T08:46:30.590Z,99554.00
2023-03-11T08:49:01.312Z,99545.22
2023-03-11T08:51:31.024Z,99549.16
2023-03-11T08:54:02.526Z,99544.19
2023-03-11T08:56:30.597Z,99537.88
2023-03-11T08:58:58.302Z,99524.47
2023-03-11T09:01:26.083Z,99519.00
2023-03-11T09:03:53.621Z,99523.84
2023-03-11T09:06:24.672Z,99520.03
2023-03-11T09:08:55.536Z,99525.19
2023-03-11T09:11:23.234Z,99520.84
2023-03-11T09:13:53.700Z,99524.84
2023-03-11T09:16:22.522Z,99512.47
2023-03-11T09:18:50.226Z,99532.09
2023-03-11T09:21:22.317Z,99522.84
2023-03-11T09:23:49.915Z,99533.78
2023-03-11T09:26:17.570Z,99530.50
2023-03-11T09:28:49.275Z,99536.56
2023-03-11T09:31:17.609Z,99528.13
2023-03-11T09:33:45.626Z,99506.44
2023-03-11T09:36:14.934Z,99505.78
2023-03-11T09:38:42.751Z,99483.72
2023-03-11T09:41:19.543Z,99490.69
2023-03-11T09:44:00.419Z,99491.13
2023-03-11T09:47:11.997Z,99485.88
2023-03-11T09:49:46.669Z,99480.59
2023-03-11T09:52:16.168Z,99465.22
2023-03-11T09:54:52.744Z,99469.34
2023-03-11T09:57:23.586Z,99461.34
2023-03-11T09:59:51.198Z,99451.75
2023-03-11T10:02:20.453Z,99449.84
2023-03-11T10:05:08.853Z,99449.06
2023-03-11T10:07:47.519Z,99454.09
2023-03-11T10:10:15.280Z,99437.72
2023-03-11T10:13:15.138Z,99440.03
2023-03-11T10:16:11.088Z,99425.88
2023-03-11T10:19:13.840Z,99424.78
2023-03-11T10:21:47.720Z,99419.63
2023-03-11T10:24:25.478Z,99412.13
2023-03-11T10:26:58.264Z,99402.78
2023-03-11T10:29:28.256Z,99397.88
2023-03-11T10:32:15.672Z,99389.00
2023-03-11T10:34:46.662Z,99389.63
2023-03-11T10:37:48.709Z,99387.50
2023-03-11T10:40:32.188Z,99371.66
2023-03-11T10:43:02.350Z,99379.94
2023-03-11T10:45:37.093Z,99367.94
2023-03-11T10:48:15.236Z,99355.56
2023-03-11T10:51:23.092Z,99351.47
2023-03-11T10:53:52.934Z,99338.56
2023-03-11T10:56:33.537Z,99332.81
2023-03-11T10:59:02.018Z,99317.56
2023-03-11T11:01:29.862Z,99324.53
2023-03-11T11:03:59.199Z,99325.91
2023-03-11T11:06:29.018Z,99305.84
2023-03-11T11:09:22.009Z,99303.56
2023-03-11T11:12:14.454Z,99301.47
2023-03-11T11:14:50.517Z,99296.81
2023-03-11T11:17:24.029Z,99292.75
2023-03-11T11:19:51.841Z,99297.63
2023-03-11T11:22:22.690Z,99275.34
2023-03-11T11:24:55.876Z,99287.97
2023-03-11T11:27:27.837Z,99280.63
2023-03-11T11:30:08.204Z,99273.25
2023-03-11T11:32:55.900Z,99283.03
2023-03-11T11:35:24.752Z,99274.78
2023-03-11T11:38:01.292Z,99266.91
2023-03-11T11:40:30.941Z,99264.38
2023-03-11T11:43:46.457Z,99263.88
2023-03-11T11:46:36.519Z,99257.19
2023-03-11T11:49:25.974Z,99259.94
2023-03-11T11:52:08.321Z,99259.66
2023-03-11T11:54:55.084Z,99247.72
2023-03-11T11:57:22.983Z,99244.25
2023-03-11T11:59:50.626Z,99247.34
2023-03-11T12:02:20.833Z,99246.53
2023-03-11T12:05:00.593Z,99251.53
2023-03-11T12:08:01.374Z,99241.78
2023-03-11T12:10:47.044Z,99244.06
2023-03-11T12:13:43.109Z,99233.72
2023-03-11T12:16:30.370Z,99231.13
2023-03-11T12:19:10.769Z,99230.47
2023-03-11T12:22:00.826Z,99228.44
2023-03-11T12:24:43.430Z,99231.13
2023-03-11T12:27:18.796Z,99210.50
2023-03-11T12:29:47.779Z,99220.25
2023-03-11T12:32:32.691Z,99215.66
2023-03-11T12:35:10.911Z,99212.09
2023-03-11T12:37:39.031Z,99210.47
2023-03-11T12:40:43.718Z,99209.13
2023-03-11T12:43:36.318Z,99208.63
2023-03-11T12:46:05.172Z,99203.16
2023-03-11T12:48:34.751Z,99210.78
2023-03-11T12:51:03.029Z,99205.28
2023-03-11T12:53:48.104Z,99204.47
2023-03-11T12:56:27.700Z,99202.59
2023-03-11T12:59:23.270Z,99199.97
2023-03-11T13:01:58.574Z,99194.34
2023-03-11T13:04:29.274Z,99188.06
2023-03-11T13:07:12.801Z,99186.75
2023-03-11T13:09:41.511Z,99188.00
2023-03-11T13:12:46.645Z,99177.84
2023-03-11T13:15:18.528Z,99174.13
2023-03-11T13:18:02.477Z,99172.31
2023-03-11T13:20:38.944Z,99165.44
2023-03-11T13:23:09.893Z,99161.19
2023-03-11T13:25:40.347Z,99156.53
2023-03-11T13:28:33.702Z,99141.91
2023-03-11T13:31:34.697Z,99138.03
2023-03-11T13:34:04.787Z,99145.53
2023-03-11T13:36:38.388Z,99134.81
2023-03-11T13:39:11.433Z,99138.88
2023-03-11T13:41:41.945Z,99141.84
2023-03-11T13:44:17.252Z,99149.88
2023-03-11T13:46:49.954Z,99145.63
2023-03-11T13:49:54.492Z,99142.50
2023-03-11T13:52:35.107Z,99131.91
2023-03-11T13:55:09.316Z,99132.28
2023-03-11T13:57:37.636Z,99123.91
2023-03-11T14:00:17.863Z,99130.41
2023-03-11T14:02:56.099Z,99128.97
2023-03-11T14:05:25.611Z,99113.91
2023-03-11T14:07:53.704Z,99108.31
2023-03-11T14:10:25.409Z,99102.72
2023-03-11T14:13:12.482Z,99102.72
2023-03-11T14:15:44.651Z,99102.59
2023-03-11T14:18:28.157Z,99094.28
2023-03-11T14:20:56.811Z,99087.50
2023-03-11T14:23:30.422Z,99073.84
2023-03-11T14:25:59.596Z,99078.81
2023-03-11T14:28:27.320Z,99078.34
2023-03-11T14:31:00.677Z,99071.22
2023-03-11T14:33:29.357Z,99069.78
2023-03-11T14:36:02.760Z,99062.75
2023-03-11T14:38:32.798Z,99066.22
2023-03-11T14:41:01.578Z,99065.97
2023-03-11T14:43:32.601Z,99070.06
2023-03-11T14:46:00.444Z,99069.66
2023-03-11T14:48:30.726Z,99065.13
2023-03-11T14:50:59.039Z,99072.41
2023-03-11T14:53:30.162Z,99066.56
2023-03-11T14:56:08.112Z,99059.66
2023-03-11T14:58:51.083Z,99070.28
2023-03-11T15:01:26.555Z,99058.28
2023-03-11T15:04:00.234Z,99059.81
2023-03-11T15:06:30.753Z,99063.84
2023-03-11T15:09:07.880Z,99056.00
2023-03-11T15:11:49.657Z,99058.13
2023-03-11T15:14:24.061Z,99058.13
2023-03-11T15:16:55.746Z,99056.47
2023-03-11T15:19:34.560Z,99054.06
2023-03-11T15:22:41.040Z,99049.78
2023-03-11T15:25:17.897Z,99050.63
2023-03-11T15:27:45.533Z,99044.19
2023-03-11T15:30:21.589Z,99045.19
2023-03-11T15:32:50.098Z,99047.56
2023-03-11T15:35:20.604Z,99047.28
2023-03-11T15:37:49.688Z,99049.22
2023-03-11T15:40:42.461Z,99042.31
2023-03-11T15:43:24.862Z,99054.81
2023-03-11T15:45:54.486Z,99055.72
2023-03-11T15:48:22.367Z,99054.34
2023-03-11T15:50:53.977Z,99044.94
2023-03-11T15:53:24.552Z,99028.97
2023-03-11T15:55:52.796Z,99030.28
2023-03-11T15:58:20.534Z,99042.69
2023-03-11T16:00:52.677Z,99036.13
2023-03-11T16:03:20.425Z,99050.41
2023-03-11T16:05:47.938Z,99037.09
2023-03-11T16:08:15.692Z,99037.06
2023-03-11T16:10:43.697Z,99025.78
2023-03-11T16:13:15.040Z,99038.13
2023-03-11T16:15:43.600Z,99031.97
2023-03-11T16:18:11.185Z,99033.97
2023-03-11T16:20:46.619Z,99030.91
2023-03-11T16:23:25.133Z,99034.25
2023-03-11T16:25:56.186Z,99023.91
2023-03-11T16:28:24.435Z,99028.91
2023-03-11T16:30:52.276Z,99023.78
2023-03-11T16:33:22.029Z,99023.31
2023-03-11T16:35:50.139Z,99013.44
2023-03-11T16:38:23.289Z,99013.44
2023-03-11T16:41:02.206Z,99016.53
2023-03-11T16:43:30.059Z,99000.72
2023-03-11T16:45:58.878Z,98997.25
2023-03-11T16:48:26.485Z,99004.53
2023-03-11T16:50:54.050Z,99008.56
2023-03-11T16:53:22.291Z,99011.66
2023-03-11T16:55:52.074Z,99007.97
2023-03-11T16:58:19.912Z,99000.38
2023-03-11T17:00:49.661Z,98996.31
2023-03-11T17:03:21.541Z,98998.81
2023-03-11T17:05:49.901Z,98997.25
2023-03-11T17:08:18.494Z,99006.41
2023-03-11T17:10:46.874Z,98999.44
2023-03-11T17:13:16.520Z,99000.13
2023-03-11T17:15:57.779Z,99008.09
2023-03-11T17:18:28.418Z,99009.28
2023-03-11T17:20:56.007Z,99007.97
2023-03-11T17:23:23.583Z,99015.69
2023-03-11T17:25:51.160Z,99007.38
2023-03-11T17:28:19.149Z,99007.50
2023-03-11T17:30:46.772Z,98999.41
2023-03-11T17:33:23.270Z,98994.09
2023-03-11T17:35:50.843Z,98987.53
2023-03-11T17:38:18.342Z,98985.75
2023-03-11T17:40:46.195Z,98982.66
2023-03-11T17:43:13.732Z,98967.56
2023-03-11T17:45:42.661Z,98972.44
2023-03-11T17:48:10.593Z,98972.44
2023-03-11T17:50:39.120Z,98977.06
2023-03-11T17:53:06.759Z,98986.56
2023-03-11T17:55:34.535Z,98975.31
2023-03-11T17:58:02.544Z,98979.34
2023-03-11T18:00:30.185Z,98966.84
2023-03-11T18:02:58.283Z,98972.56
2023-03-11T18:05:26.019Z,98978.25
2023-03-11T18:07:53.706Z,98974.22
2023-03-11T18:10:21.772Z,98978.50
2023-03-11T18:12:50.903Z,98967.09
2023-03-11T18:15:19.579Z,98965.06
2023-03-11T18:17:48.964Z,98959.38
2023-03-11T18:20:16.848Z,98960.06
2023-03-11T18:22:46.701Z,98943.09
2023-03-11T18:25:14.893Z,98945.69
2023-03-11T18:27:42.537Z,98939.78
2023-03-11T18:30:11.390Z,98938.53
2023-03-11T18:32:58.905Z,98935.03
2023-03-11T18:35:27.035Z,98930.47
2023-03-11T18:37:57.655Z,98937.84
2023-03-11T18:40:27.050Z,98942.25
2023-03-11T18:42:54.770Z,98933.34
2023-03-11T18:45:22.811Z,98933.56
2023-03-11T18:47:50.839Z,98931.13
2023-03-11T18:50:21.720Z,98925.16
2023-03-11T18:52:53.431Z,98939.88
2023-03-11T18:55:21.080Z,98922.91
2023-03-11T18:57:49.119Z,98919.47
2023-03-11T19:00:22.421Z,98932.16
2023-03-11T19:02:53.801Z,98930.03
2023-03-11T19:05:21.783Z,98930.41
2023-03-11T19:07:49.631Z,98915.41
2023-03-11T19:10:20.098Z,98927.19
2023-03-11T19:12:47.804Z,98923.84
2023-03-11T19:15:15.477Z,98925.63
2023-03-11T19:17:45.508Z,98924.91
2023-03-11T19:20:15.537Z,98916.00
2023-03-11T19:22:43.131Z,98909.69
2023-03-11T19:25:10.683Z,98914.94
2023-03-11T19:27:40.357Z,98914.97
2023-03-11T19:30:09.973Z,98905.69
2023-03-11T19:32:55.481Z,98903.91
2023-03-11T19:35:23.515Z,98897.63
2023-03-11T19:37:57.434Z,98884.44
2023-03-11T19:40:25.185Z,98898.72
2023-03-11T19:42:52.791Z,98893.94
2023-03-11T19:45:21.299Z,98890.16
2023-03-11T19:47:51.585Z,98885.53
2023-03-11T19:50:19.269Z,98888.00
2023-03-11T19:52:49.322Z,98880.53
2023-03-11T19:55:17.048Z,98878.16
2023-03-11T19:57:45.189Z,98876.38
2023-03-11T20:00:13.195Z,98874.25
2023-03-11T20:02:41.803Z,98868.75
2023-03-11T20:05:10.038Z,98857.75
2023-03-11T20:07:37.644Z,98866.06
2023-03-11T20:10:06.407Z,98863.91
2023-03-11T20:12:34.618Z,98858.44
2023-03-11T20:15:03.281Z,98870.09
2023-03-11T20:17:32.024Z,98867.81
2023-03-11T20:20:00.356Z,98870.56
2023-03-11T20:22:28.373Z,98876.13
2023-03-11T20:24:56.498Z,98887.53
2023-03-11T20:27:24.103Z,98892.66
2023-03-11T20:29:51.843Z,98902.97
2023-03-11T20:32:20.347Z,98898.31
2023-03-11T20:34:48.055Z,98905.00
2023-03-11T20:37:18.300Z,98887.28
2023-03-11T20:39:46.220Z,98898.31
2023-03-11T20:42:13.822Z,98902.72
2023-03-11T20:44:46.146Z,98889.44
2023-03-11T20:47:14.503Z,98914.94
2023-03-11T20:49:44.301Z,98905.34
2023-03-11T20:52:13.442Z,98901.53
2023-03-11T20:54:45.652Z,98890.34
2023-03-11T20:57:14.619Z,98905.78
2023-03-11T20:59:42.177Z,98898.88
2023-03-11T21:02:11.602Z,98893.34
2023-03-11T21:04:41.326Z,98876.47
2023-03-11T21:07:09.013Z,98877.63
2023-03-11T21:09:37.807Z,98879.19
2023-03-11T21:12:05.913Z,98867.06
2023-03-11T21:14:33.653Z,98858.41
2023-03-11T21:17:01.421Z,98863.25
2023-03-11T21:19:29.448Z,98859.34
2023-03-11T21:21:57.649Z,98861.75
2023-03-11T21:24:25.278Z,98861.38
2023-03-11T21:26:52.875Z,98835.06
2023-03-11T21:29:23.164Z,98863.56
2023-03-11T21:31:50.796Z,98854.75
2023-03-11T21:34:18.427Z,98855.72
2023-03-11T21:36:46.795Z,98859.38
2023-03-11T21:39:15.496Z,98865.91
2023-03-11T21:41:43.082Z,98865.09
2023-03-11T21:44:10.808Z,98852.78
2023-03-11T21:46:38.903Z,98862.22
2023-03-11T21:49:06.848Z,98853.22
2023-03-11T21:51:35.727Z,98859.13
2023-03-11T21:54:05.470Z,98847.41
2023-03-11T21:56:35.207Z,98851.78
2023-03-11T21:59:03.983Z,98843.91
2023-03-11T22:01:34.259Z,98844.59
2023-03-11T22:04:03.093Z,98840.94
2023-03-11T22:06:33.659Z,98844.81
2023-03-11T22:09:01.740Z,98839.19
2023-03-11T22:11:31.107Z,98841.06
2023-03-11T22:14:00.938Z,98848.31
2023-03-11T22:16:28.956Z,98847.03
2023-03-11T22:18:56.686Z,98839.34
2023-03-11T22:21:24.306Z,98834.44
2023-03-11T22:23:51.877Z,98842.19
2023-03-11T22:26:20.313Z,98834.81
2023-03-11T22:28:47.972Z,98831.63
2023-03-11T22:31:15.791Z,98834.09
2023-03-11T22:33:43.676Z,98831.38
2023-03-11T22:36:11.420Z,98832.09
2023-03-11T22:38:42.301Z,98827.84
2023-03-11T22:41:09.907Z,98833.63
2023-03-11T22:43:38.029Z,98830.44
2023-03-11T22:46:05.982Z,98823.91
2023-03-11T22:48:33.892Z,98812.28
2023-03-11T22:51:02.153Z,98808.94
2023-03-11T22:53:31.046Z,98797.78
2023-03-11T22:55:58.641Z,98795.88
2023-03-11T22:58:26.368Z,98794.44
2023-03-11T23:00:53.980Z,98794.44
2023-03-11T23:03:21.553Z,98783.91
2023-03-11T23:05:49.191Z,98775.28
2023-03-11T23:08:17.859Z,98764.00
2023-03-11T23:10:46.816Z,98770.50
2023-03-11T23:13:15.280Z,98768.34
2023-03-11T23:15:43.692Z,98766.13
2023-03-11T23:18:15.991Z,98760.66
2023-03-11T23:20:43.797Z,98754.47
2023-03-11T23:23:12.225Z,98739.75
2023-03-11T23:25:40.666Z,98740.81
2023-03-11T23:28:09.854Z,98739.66
2023-03-11T23:30:37.590Z,98734.63
2023-03-11T23:33:06.265Z,98726.28
2023-03-11T23:35:34.177Z,98736.41
2023-03-11T23:38:01.721Z,98741.97
2023-03-11T23:40:29.649Z,98725.38
2023-03-11T23:42:57.725Z,98723.22
2023-03-11T23:45:25.476Z,98708.94
2023-03-11T23:47:53.257Z,98703.31
2023-03-11T23:50:21.225Z,98694.50
2023-03-11T23:52:49.603Z,98697.19
2023-03-11T23:55:17.539Z,98697.06
2023-03-11T23:57:46.102Z,98684.31
